| time (UTC) | temp C | wind direction | speed KPH | gust KPH | rain 1hr cm | rain 24hr cm | rain mn cm | humidity % | barometer mb |
| 20260507233053 | 21 | 38 | 3.2 | 11.3 | 0.00 | 4.39 | 4.39 | 92 | 1016.4 |
| 20260507231601 | 21 | 92 | 3.2 | 11.3 | 0.00 | 4.39 | 4.39 | 92 | 1016.3 |
| 20260507230101 | 21 | 102 | 3.2 | 8.0 | 0.00 | 4.39 | 4.39 | 93 | 1016.0 |
| 20260507224556 | 21 | 0 | 3.2 | 9.7 | 0.15 | 4.39 | 4.39 | 92 | 1016.0 |
| 20260507223058 | 21 | 0 | 0.0 | 1.6 | 0.94 | 4.39 | 4.39 | 93 | 1016.0 |
| 20260507221551 | 21 | 90 | 1.6 | 6.4 | 2.49 | 4.39 | 4.39 | 93 | 1015.8 |
| 20260507220051 | 21 | 0 | 0.0 | 12.9 | 3.38 | 4.39 | 4.39 | 92 | 1015.6 |
| 20260507214558 | 21 | 54 | 8.0 | 14.5 | 3.28 | 4.22 | 4.22 | 93 | 1015.1 |
| 20260507213056 | 21 | 202 | 4.8 | 9.7 | 2.77 | 3.43 | 3.43 | 92 | 1015.6 |
| 20260507211553 | 21 | 210 | 0.0 | 8.0 | 1.80 | 1.88 | 1.88 | 92 | 1015.4 |
| 20260507210052 | 22 | 40 | 1.6 | 6.4 | 0.97 | 1.02 | 1.02 | 92 | 1015.3 |
| 20260507204554 | 22 | 167 | 3.2 | 11.3 | 0.94 | 0.94 | 0.94 | 91 | 1015.2 |
| 20260507203106 | 22 | 147 | 4.8 | 12.9 | 0.64 | 0.64 | 0.64 | 91 | 1015.2 |
| 20260507201553 | 23 | 294 | 6.4 | 11.3 | 0.08 | 0.08 | 0.08 | 89 | 1015.1 |
| 20260507200054 | 23 | 225 | 3.2 | 9.7 | 0.05 | 0.05 | 0.05 | 88 | 1015.3 |
| 20260507194552 | 23 | 155 | 3.2 | 9.7 | 0.00 | 0.00 | 0.00 | 86 | 1015.4 |
| 20260507193100 | 23 | 101 | 3.2 | 9.7 | 0.00 | 0.00 | 0.00 | 86 | 1015.5 |
| 20260507191554 | 23 | 141 | 3.2 | 9.7 | 0.00 | 0.00 | 0.00 | 87 | 1015.7 |
| 20260507190056 | 23 | 269 | 3.2 | 11.3 | 0.00 | 0.00 | 0.00 | 86 | 1015.8 |
| 20260507184609 | 24 | 103 | 1.6 | 11.3 | 0.00 | 0.00 | 0.00 | 83 | 1015.8 |
| 20260507183056 | 24 | 297 | 1.6 | 16.1 | 0.00 | 0.00 | 0.00 | 81 | 1015.9 |
| 20260507181553 | 25 | 160 | 1.6 | 11.3 | 0.00 | 0.00 | 0.00 | 79 | 1015.8 |
| 20260507180055 | 25 | 99 | 3.2 | 8.0 | 0.00 | 0.00 | 0.00 | 79 | 1016.0 |
| 20260507174605 | 25 | 46 | 3.2 | 11.3 | 0.00 | 0.00 | 0.00 | 77 | 1016.3 |
| 20260507173102 | 25 | 139 | 4.8 | 11.3 | 0.00 | 0.00 | 0.00 | 77 | 1016.4 |
| 20260507171611 | 25 | 22 | 3.2 | 12.9 | 0.00 | 0.00 | 0.00 | 77 | 1016.7 |
| 20260507170059 | 26 | 150 | 4.8 | 12.9 | 0.00 | 0.00 | 0.00 | 75 | 1016.9 |
| 20260507164610 | 25 | 193 | 6.4 | 12.9 | 0.00 | 0.00 | 0.00 | 74 | 1017.3 |
| 20260507163055 | 25 | 111 | 4.8 | 17.7 | 0.00 | 0.00 | 0.00 | 76 | 1017.5 |
| 20260507161603 | 26 | 122 | 6.4 | 16.1 | 0.00 | 0.00 | 0.00 | 73 | 1017.6 |
| 20260507160059 | 25 | 107 | 3.2 | 16.1 | 0.00 | 0.00 | 0.00 | 76 | 1017.8 |
| 20260507154556 | 25 | 57 | 3.2 | 11.3 | 0.00 | 0.00 | 0.00 | 76 | 1018.0 |
| 20260507153058 | 25 | 128 | 3.2 | 14.5 | 0.00 | 0.00 | 0.00 | 74 | 1018.0 |
| 20260507151547 | 26 | 44 | 1.6 | 14.5 | 0.00 | 0.00 | 0.00 | 73 | 1018.1 |
| 20260507150048 | 26 | 352 | 4.8 | 14.5 | 0.00 | 0.00 | 0.00 | 72 | 1018.0 |
| 20260507144549 | 26 | 134 | 3.2 | 14.5 | 0.00 | 0.00 | 0.00 | 75 | 1018.2 |
| 20260507143052 | 25 | 352 | 4.8 | 16.1 | 0.00 | 0.00 | 0.00 | 74 | 1018.2 |
| 20260507141558 | 25 | 140 | 6.4 | 14.5 | 0.00 | 0.00 | 0.00 | 75 | 1018.3 |
| 20260507140051 | 24 | 16 | 1.6 | 12.9 | 0.00 | 0.00 | 0.00 | 80 | 1018.4 |
| 20260507134554 | 23 | 360 | 3.2 | 12.9 | 0.00 | 0.00 | 0.00 | 80 | 1018.2 |
| 20260507133053 | 24 | 162 | 3.2 | 11.3 | 0.00 | 0.00 | 0.00 | 80 | 1018.1 |
| 20260507131553 | 23 | 136 | 4.8 | 14.5 | 0.00 | 0.00 | 0.00 | 81 | 1018.0 |
| 20260507130056 | 23 | 68 | 3.2 | 11.3 | 0.00 | 0.00 | 0.00 | 84 | 1018.0 |
| 20260507124555 | 23 | 38 | 4.8 | 14.5 | 0.00 | 0.00 | 0.00 | 84 | 1018.0 |
| 20260507123051 | 22 | 111 | 3.2 | 12.9 | 0.00 | 0.00 | 0.00 | 86 | 1017.8 |
| 20260507121553 | 22 | 91 | 3.2 | 16.1 | 0.00 | 0.00 | 0.00 | 87 | 1017.7 |
| 20260507120057 | 22 | 58 | 1.6 | 9.7 | 0.00 | 0.00 | 0.00 | 86 | 1017.3 |
| 20260507114553 | 22 | 82 | 3.2 | 12.9 | 0.00 | 0.00 | 0.00 | 88 | 1017.2 |
| 20260507113053 | 21 | 67 | 3.2 | 11.3 | 0.00 | 0.00 | 0.00 | 87 | 1017.2 |
| 20260507111558 | 21 | 44 | 1.6 | 8.0 | 0.00 | 0.00 | 0.00 | 89 | 1017.1 |
| 20260507110106 | 21 | 63 | 3.2 | 11.3 | 0.00 | 0.00 | 0.00 | 89 | 1017.0 |
| 20260507104554 | 21 | 60 | 4.8 | 12.9 | 0.00 | 0.00 | 0.00 | 91 | 1016.9 |
| 20260507103057 | 20 | 61 | 3.2 | 12.9 | 0.00 | 0.00 | 0.00 | 92 | 1016.6 |
| 20260507101550 | 20 | 106 | 3.2 | 11.3 | 0.00 | 0.00 | 0.00 | 92 | 1016.6 |
| 20260507100052 | 20 | 139 | 3.2 | 11.3 | 0.00 | 0.00 | 0.00 | 93 | 1016.4 |
| 20260507094607 | 20 | 0 | 0.0 | 3.2 | 0.00 | 0.00 | 0.00 | 93 | 1016.5 |
| 20260507093100 | 20 | 66 | 1.6 | 9.7 | 0.00 | 0.00 | 0.00 | 93 | 1016.5 |
| 20260507091631 | 20 | 29 | 3.2 | 9.7 | 0.00 | 0.00 | 0.00 | 93 | 1016.5 |
| 20260507084555 | 20 | 44 | 3.2 | 8.0 | 0.00 | 0.00 | 0.00 | 92 | 1016.5 |
| 20260507083053 | 20 | 0 | 3.2 | 8.0 | 0.00 | 0.00 | 0.00 | 92 | 1016.4 |
| 20260507081552 | 20 | 82 | 3.2 | 9.7 | 0.00 | 0.00 | 0.00 | 92 | 1016.2 |
| 20260507080055 | 20 | 86 | 3.2 | 8.0 | 0.00 | 0.00 | 0.00 | 92 | 1016.3 |
| 20260507074553 | 20 | 78 | 1.6 | 6.4 | 0.00 | 0.00 | 0.00 | 92 | 1016.3 |
| 20260507073054 | 20 | 0 | 0.0 | 6.4 | 0.00 | 0.00 | 0.00 | 92 | 1016.4 |
| 20260507071557 | 20 | 74 | 1.6 | 6.4 | 0.00 | 0.00 | 0.00 | 91 | 1016.5 |
| 20260507070104 | 20 | 40 | 3.2 | 12.9 | 0.00 | 0.00 | 0.00 | 91 | 1016.7 |
| 20260507064556 | 20 | 55 | 4.8 | 12.9 | 0.00 | 0.00 | 0.00 | 90 | 1016.7 |
| 20260507063057 | 20 | 57 | 1.6 | 8.0 | 0.00 | 0.00 | 0.00 | 90 | 1017.1 |
| 20260507061555 | 21 | 61 | 3.2 | 11.3 | 0.00 | 0.00 | 0.00 | 90 | 1017.2 |
| 20260507060104 | 21 | 67 | 4.8 | 11.3 | 0.00 | 0.00 | 0.00 | 90 | 1017.4 |
| 20260507054556 | 21 | 66 | 0.0 | 12.9 | 0.00 | 0.00 | 0.00 | 89 | 1017.4 |
| 20260507053054 | 21 | 45 | 3.2 | 11.3 | 0.00 | 0.00 | 0.00 | 89 | 1017.6 |
| 20260507051553 | 20 | 52 | 4.8 | 12.9 | 0.00 | 0.00 | 0.00 | 91 | 1017.9 |
| 20260507050100 | 20 | 57 | 4.8 | 11.3 | 0.00 | 0.00 | 0.00 | 91 | 1018.3 |
| 20260507044600 | 20 | 90 | 0.0 | 6.4 | 0.00 | 0.00 | 0.00 | 91 | 1018.5 |
| 20260507043058 | 20 | 62 | 1.6 | 8.0 | 0.00 | 0.00 | 0.00 | 92 | 1018.7 |
| 20260507041550 | 20 | 0 | 1.6 | 6.4 | 0.00 | 0.00 | 0.00 | 90 | 1018.7 |
| 20260507040101 | 20 | 231 | 0.0 | 3.2 | 0.00 | 0.00 | 0.00 | 91 | 1018.8 |
| 20260507034558 | 20 | 0 | 1.6 | 4.8 | 0.00 | 0.00 | 0.00 | 91 | 1018.9 |
| 20260507033051 | 20 | 0 | 0.0 | 4.8 | 0.00 | 0.00 | 0.00 | 91 | 1019.0 |
| 20260507031553 | 20 | 69 | 0.0 | 3.2 | 0.00 | 0.00 | 0.00 | 90 | 1019.1 |
| 20260507030053 | 20 | 0 | 0.0 | 4.8 | 0.00 | 0.00 | 0.00 | 89 | 1019.1 |
| 20260507024600 | 20 | 0 | 0.0 | 4.8 | 0.00 | 0.00 | 0.00 | 90 | 1019.3 |
| 20260507023054 | 20 | 36 | 1.6 | 4.8 | 0.00 | 0.00 | 0.00 | 90 | 1019.1 |
| 20260507021551 | 20 | 0 | 0.0 | 4.8 | 0.00 | 0.00 | 0.00 | 91 | 1019.0 |
| 20260507020057 | 20 | 0 | 0.0 | 3.2 | 0.00 | 0.00 | 0.00 | 90 | 1019.1 |
| 20260507014552 | 20 | 34 | 0.0 | 1.6 | 0.00 | 0.00 | 0.00 | 89 | 1019.0 |
| 20260507013050 | 20 | 0 | 0.0 | 4.8 | 0.00 | 0.00 | 0.00 | 89 | 1018.9 |
| 20260507011549 | 20 | 327 | 0.0 | 3.2 | 0.00 | 0.00 | 0.00 | 89 | 1018.9 |
| 20260507010110 | 20 | 0 | 0.0 | 1.6 | 0.00 | 0.00 | 0.00 | 88 | 1018.7 |
| 20260507004556 | 20 | 0 | 0.0 | 1.6 | 0.00 | 0.00 | 0.00 | 88 | 1018.6 |
| 20260507003057 | 21 | 0 | 0.0 | 1.6 | 0.00 | 0.00 | 0.00 | 87 | 1018.3 |
| 20260507001557 | 21 | 0 | 0.0 | 4.8 | 0.00 | 0.00 | 0.00 | 86 | 1018.3 |
| 20260507000101 | 21 | 0 | 0.0 | 11.3 | 0.00 | 0.00 | 0.00 | 86 | 1018.0 |
| 20260506234602 | 21 | 200 | 0.0 | 3.2 | 0.00 | 0.00 | 0.00 | 85 | 1018.0 |